Flight Track Log - Related Links

Times and Time Zones

All times are in EDT time to prevent confusion due to time zone crossing. See the N53NW flight status page for this flight to view local times or setup timezone preferences in your user account.

Time Position Orientation Groundspeed Altitude Reporting Facility
EDT Latitude Longitude Course Direction KTS MPH feet Rate Location/Type
Wed 06:31:45 PM 42.7178 -86.2017 250° West 211 243 4,000  Level Chicago Center
Wed 06:32:47 PM 42.6881 -86.3047 249° West 235 270 8,200 2,903 Climbing Chicago Center
Wed 06:33:49 PM 42.6639 -86.3911 249° West 243 280 10,000 871 Climbing Chicago Center
Wed 06:34:51 PM 42.6392 -86.4797 249° West 250 288 10,000  Level Chicago Center
Wed 06:35:53 PM 42.6122 -86.5725 248° West 261 300 10,000  Level Chicago Center
Wed 06:36:55 PM 42.5864 -86.6622 249° West 258 297 10,000  Level Chicago Center
Wed 06:37:00 PM 42.5851 -86.6220 250° West  Level FlightAware Approximate
Wed 06:37:57 PM 42.5628 -86.7550 251° West 260 299 10,000  Level Chicago Center
Wed 06:38:59 PM 42.5311 -86.8625 248° West 257 296 9,800 -823 Descending Chicago Center
Wed 06:40:01 PM 42.5056 -86.9525 249° West 257 296 8,300 -1,403 Descending Chicago Center
Wed 06:41:03 PM 42.4797 -87.0408 248° West 255 293 6,900 -1,306 Descending Chicago Center
Wed 06:42:05 PM 42.4517 -87.1297 247° West 259 298 5,600 -1,306 Descending Chicago Center
Wed 06:43:07 PM 42.4264 -87.2217 250° West 262 302 4,200 -1,258 Descending Chicago Center
Wed 06:44:09 PM 42.4006 -87.3069 248° West 251 289 3,000 -576 Descending Chicago Center
Wed 06:45:12 PM 42.3703 -87.3961 245° Southwest 247 284 3,000  Level Chicago Center
Wed 06:46:14 PM 42.3533 -87.4933 257° West 241 277 3,000  Level Chicago Center
Wed 06:47:16 PM 42.3475 -87.5783 265° West 232 267 3,000  Level Chicago Center
Wed 06:48:18 PM 42.3406 -87.6769 265° West 235 270 3,000  Level Chicago Center
Wed 06:49:20 PM 42.3364 -87.7522 266° West 234 269 3,000  Level Chicago Center
Wed 06:50:22 PM 42.3311 -87.8572 266° West 234 269 3,000 -242 Level Chicago Center
Wed 06:51:24 PM 42.3242 -87.9372 263° West 229 264 2,500 -242 Descending Chicago Center
Wed 06:52:26 PM 42.2967 -87.9958 238° Southwest 219 252 2,500  Level Chicago Center
Wed 06:53:28 PM 42.2450 -87.9719 161° South 210 242 2,500 -145 Level Chicago Center
Wed 06:54:30 PM 42.1992 -87.9472 158° South 193 222 2,200 -290 Descending Chicago Center
Wed 06:57:00 PM 42.1133 -87.9044 166° South  Level FlightAware Approximate
Wed 07:04:00 PM 42.1143 -87.9015 166° South  Level Estimated

Login

Don't have an account? Register now (free) for customized features, flight alerts, and more!